Aeroporto :







RITROVATECI SU...

 
LOGIN :

Iscrizione | Disclaimer

   EN    FR    IT 

 









Sommario :    VFR   VFR Marginale   IFR   IFR Intensivo   IFR Molto Intensivo
Visibilità : 
Base nubi : 
>= 8 km
>= 3000ft
5 / 8 km
1000 / 3000 ft
1500m / 5 km
500 / 1000 ft
800 / 1500m
200 / 500 ft
< 800m
< 200 ft
Simboli :   Temporali  Nebbia  Neve Forte  Precipitazioni Forti  Vento > 20 kt






- Altitudine del aeroporto : 477 ft
- Codice IATA : YHZ


CYHZ - Halifax Stanfield Int.

ULTIMO METAR :
  • 311700Z 20007KT 15SM FEW032 BKN210 22/13 A2977 RMK CU1CS6 SLP085 DENSITY ALT 1600FT

METARs OBSOLETI :
  • 311600Z 26006KT 210V300 15SM FEW032 FEW120 BKN240 21/14 A2977 RMK CU1AC1CS5 ACC ASOCTD SLP085 DENSITY ALT 1500FT
  • 311500Z 23006KT 15SM FEW030 SCT100 BKN220 18/13 A2978 RMK SC2AC2CI2 SLP087 DENSITY ALT 1200FT

TAF TAF CYHZ
Valido dal 31 a 18 ore il 01 a 18 ore UTC


311730Z 3118/0118 20008KT P6SM BKN050 BKN250
TEMPO 3118/3122 P6SM -SHRA
BECMG 3122/3124 34008KT
FM010300 32012KT P6SM BKN060
FM010500 35010G20KT P6SM BKN015 OVC060
FM011200 34010G20KT P6SM SCT020 BKN050
FM011500 34012KT P6SM BKN050 RMK NXT FCST BY 312100Z
FIR CZQM / America del Nord



MetMap, La meteo Aeronautica in un colpo d'occhio ! - Copyright ORBIFLY Dicembre 2007 - Disclaimer

ORBIFLY MET'MAP TEAM :

Programmazione e sviluppo : Alexandra Zaïnal
Concezione : Baudouin d'Aumeries
Aiuto per la programmazione : Marc-Olivier Méhu
Supporto tecnico e logistico : Manuel Goepfert
Aiuto per la traduzione : Arnaldo La Scala

Contatto : metmap@orbifly.com




FONTI E CREDITI :

   NOAA